Time;durP1;ratioP1;P1;durP2;ratioP2;P2;SDS_P1;SDS_P2;PMS_P1;PMS_P2;Temp;Humidity;BMP_temperature;BMP_pressure;BME280_temperature;BME280_humidity;BME280_pressure;Samples;Min_cycle;Max_cycle;Signal;HPM_P1;HPM_P2
2022/12/27 00:02:26;;;;;;;10.48;3.63;;;;;;;2.52;100.00;102116.25;6249692;22;20473;-75
2022/12/27 00:04:53;;;;;;;5.28;2.78;;;;;;;2.51;100.00;102117.38;6248982;22;20442;-75
2022/12/27 00:07:19;;;;;;;8.88;3.03;;;;;;;2.51;100.00;102120.00;6250080;22;20024;-75
2022/12/27 00:09:46;;;;;;;8.40;3.25;;;;;;;2.49;100.00;102116.97;6249598;22;20446;-75
2022/12/27 00:12:12;;;;;;;12.02;4.38;;;;;;;2.47;100.00;102112.06;6248711;22;20032;-75
2022/12/27 00:14:39;;;;;;;7.18;3.08;;;;;;;2.45;100.00;102116.13;6249956;22;20390;-75
2022/12/27 00:17:05;;;;;;;9.25;3.67;;;;;;;2.43;100.00;102107.84;6249094;22;20132;-75
2022/12/27 00:19:32;;;;;;;6.80;3.30;;;;;;;2.40;100.00;102104.03;6249066;22;20013;-75
2022/12/27 00:21:58;;;;;;;7.72;3.72;;;;;;;2.38;100.00;102111.53;6248919;22;20424;-75
2022/12/27 00:24:25;;;;;;;5.68;3.35;;;;;;;2.40;100.00;102111.19;6222758;22;20020;-75
2022/12/27 00:26:51;;;;;;;6.50;3.25;;;;;;;2.39;100.00;102112.31;6248542;22;20012;-75
2022/12/27 00:29:17;;;;;;;9.27;3.38;;;;;;;2.39;100.00;102112.31;6222660;22;20075;-75
2022/12/27 00:31:44;;;;;;;8.65;3.35;;;;;;;2.43;100.00;102115.72;6249727;22;20020;-75
2022/12/27 00:34:11;;;;;;;11.60;3.78;;;;;;;2.43;100.00;102116.50;6249030;22;20134;-75
2022/12/27 00:36:37;;;;;;;6.60;3.13;;;;;;;2.42;100.00;102119.47;6249347;22;20018;-75
2022/12/27 00:39:04;;;;;;;9.82;2.85;;;;;;;2.45;100.00;102118.75;6249030;22;20111;-75
2022/12/27 00:41:31;;;;;;;6.30;3.03;;;;;;;2.44;100.00;102120.63;6248640;22;20070;-75
2022/12/27 00:43:57;;;;;;;10.23;3.30;;;;;;;2.43;100.00;102119.13;6248736;22;20017;-75
2022/12/27 00:46:24;;;;;;;6.75;2.90;;;;;;;2.45;100.00;102122.16;6249609;22;20386;-75
2022/12/27 00:48:51;;;;;;;13.35;3.03;;;;;;;2.47;100.00;102130.44;6249110;22;20020;-75
2022/12/27 00:51:20;;;;;;;5.78;3.05;;;;;;;2.50;100.00;102135.00;6249677;22;20052;-75
2022/12/27 00:53:48;;;;;;;6.93;3.25;;;;;;;2.51;100.00;102128.66;6246889;22;20016;-75
2022/12/27 00:56:17;;;;;;;9.45;3.10;;;;;;;2.53;100.00;102138.81;6246604;22;20016;-75
2022/12/27 00:58:44;;;;;;;6.53;2.40;;;;;;;2.52;100.00;102135.41;6247562;22;20454;-75
2022/12/27 01:01:15;;;;;;;10.80;2.72;;;;;;;2.51;100.00;102139.16;6248088;22;20048;-75
2022/12/27 01:03:42;;;;;;;4.88;2.72;;;;;;;2.54;100.00;102145.59;6247859;22;20017;-75
2022/12/27 01:06:12;;;;;;;8.02;3.20;;;;;;;2.57;100.00;102147.53;6248811;22;20093;-75
2022/12/27 01:08:39;;;;;;;6.35;2.50;;;;;;;2.59;100.00;102151.31;6249517;22;20021;-75
2022/12/27 01:11:07;;;;;;;6.13;2.90;;;;;;;2.64;100.00;102160.78;6248268;22;20016;-76
2022/12/27 01:13:34;;;;;;;7.75;3.17;;;;;;;2.64;100.00;102160.78;6249258;22;20101;-74
2022/12/27 01:16:11;;;;;;;11.93;3.40;;;;;;;2.70;100.00;102163.91;6221992;22;20485;-75
2022/12/27 01:18:38;;;;;;;5.65;3.40;;;;;;;2.73;100.00;102168.47;6249543;22;20013;-75
2022/12/27 01:21:06;;;;;;;7.22;2.63;;;;;;;2.79;100.00;102180.22;6248711;22;20590;-75
2022/12/27 01:23:33;;;;;;;7.95;2.80;;;;;;;2.87;100.00;102172.06;6248770;22;20317;-74
2022/12/27 01:26:01;;;;;;;8.57;3.25;;;;;;;2.89;100.00;102163.81;6221705;22;20430;-75
2022/12/27 01:28:28;;;;;;;6.35;2.88;;;;;;;2.89;100.00;102166.44;6249160;22;20079;-75
2022/12/27 01:30:55;;;;;;;14.13;3.00;;;;;;;2.89;100.00;102176.97;6248442;22;20224;-75
2022/12/27 01:33:21;;;;;;;9.27;3.17;;;;;;;2.85;100.00;102187.44;6250463;22;20443;-75
2022/12/27 01:35:48;;;;;;;9.50;3.17;;;;;;;2.82;100.00;102190.00;6250413;22;20338;-75
2022/12/27 01:38:15;;;;;;;7.32;3.28;;;;;;;2.80;100.00;102203.50;6249363;22;20461;-74
2022/12/27 01:40:41;;;;;;;13.52;3.70;;;;;;;2.80;100.00;102189.63;6249862;22;20463;-76
2022/12/27 01:43:17;;;;;;;11.77;3.33;;;;;;;2.81;100.00;102205.03;6249659;22;20017;-74
2022/12/27 01:45:45;;;;;;;8.77;3.45;;;;;;;2.84;100.00;102204.31;6248982;22;20020;-74
2022/12/27 01:48:16;;;;;;;7.38;3.53;;;;;;;2.86;100.00;102220.50;6249871;22;20020;-74
2022/12/27 01:50:49;;;;;;;10.52;3.70;;;;;;;2.88;100.00;102231.44;6250449;22;20020;-74
2022/12/27 01:53:33;;;;;;;8.63;3.50;;;;;;;2.89;100.00;102216.44;6248412;22;20454;-74
2022/12/27 01:56:01;;;;;;;7.35;3.25;;;;;;;2.93;100.00;102207.50;6249500;22;20008;-74
2022/12/27 01:58:31;;;;;;;6.75;3.20;;;;;;;2.93;100.00;102202.22;6250232;22;20483;-74
2022/12/27 02:00:58;;;;;;;4.32;2.50;;;;;;;2.94;100.00;102208.25;6249815;22;20536;-74
2022/12/27 02:03:32;;;;;;;4.57;2.55;;;;;;;2.96;100.00;102213.91;6250405;22;20021;-74
2022/12/27 02:06:01;;;;;;;7.32;2.00;;;;;;;3.00;100.00;102215.50;6249613;22;20020;-74
2022/12/27 02:08:35;;;;;;;6.15;2.10;;;;;;;3.05;100.00;102221.59;6249822;22;20017;-74
2022/12/27 02:11:04;;;;;;;3.35;1.48;;;;;;;3.06;100.00;102215.22;6249508;22;20355;-74
2022/12/27 02:13:33;;;;;;;5.13;2.25;;;;;;;3.06;100.00;102221.22;6250454;22;20016;-75
2022/12/27 02:15:59;;;;;;;5.15;2.47;;;;;;;3.05;100.00;102216.31;6249579;22;20013;-75
2022/12/27 02:18:26;;;;;;;6.60;2.30;;;;;;;3.05;100.00;102221.59;6250580;22;20012;-74
2022/12/27 02:21:25;;;;;;;5.70;2.33;;;;;;;3.04;100.00;102218.19;6249677;22;20048;-75
2022/12/27 02:24:23;;;;;;;4.60;2.80;;;;;;;3.04;100.00;102222.69;6223108;22;20087;-75
2022/12/27 02:27:10;;;;;;;9.50;2.78;;;;;;;3.02;100.00;102225.69;6250075;22;20468;-75
2022/12/27 02:29:49;;;;;;;8.63;3.17;;;;;;;3.03;100.00;102221.94;6173926;22;20036;-75
2022/12/27 02:32:26;;;;;;;10.02;3.45;;;;;;;3.02;100.00;102217.78;6248388;22;20040;-74
2022/12/27 02:34:59;;;;;;;6.60;2.92;;;;;;;3.02;100.00;102223.03;6249614;22;20012;-75
2022/12/27 02:37:30;;;;;;;5.95;3.38;;;;;;;3.03;100.00;102237.72;6249956;22;20048;-74
2022/12/27 02:53:02;;;;;;;5.22;3.20;;;;;;;3.03;100.00;102245.59;6249491;22;20012;-74
2022/12/27 02:54:47;;;;;;;7.43;3.28;;;;;;;3.10;100.00;102266.03;6250158;22;20528;-74
2022/12/27 02:57:33;;;;;;;11.20;3.80;;;;;;;3.10;100.00;102277.31;6249943;22;20017;-74
2022/12/27 03:03:30;;;;;;;5.43;3.60;;;;;;;3.06;100.00;102263.34;6249246;22;20017;-74
2022/12/27 03:06:41;;;;;;;14.90;3.65;;;;;;;3.05;100.00;102253.16;6248925;22;20020;-74
2022/12/27 03:09:10;;;;;;;10.32;3.58;;;;;;;3.03;100.00;102253.50;6249503;22;20048;-74
2022/12/27 03:17:38;;;;;;;4.90;2.80;;;;;;;2.96;100.00;102256.78;6250159;22;20044;-74
2022/12/27 03:25:49;;;;;;;7.72;3.60;;;;;;;2.90;100.00;102249.50;6223024;22;20021;-74
2022/12/27 03:34:30;;;;;;;7.20;3.25;;;;;;;2.77;100.00;102254.19;6248641;22;20036;-75
2022/12/27 03:39:46;;;;;;;10.52;2.75;;;;;;;2.72;100.00;102265.00;6250157;22;20016;-75
2022/12/27 03:45:07;;;;;;;6.63;2.35;;;;;;;2.75;100.00;102266.16;6249292;22;20091;-75
2022/12/27 03:47:54;;;;;;;11.07;3.00;;;;;;;2.75;100.00;102264.31;6249847;22;20013;-75
2022/12/27 03:50:45;;;;;;;7.25;2.55;;;;;;;2.76;100.00;102265.06;6249618;22;20021;-75
2022/12/27 03:53:25;;;;;;;9.07;2.70;;;;;;;2.74;100.00;102270.66;6249415;22;20017;-75
2022/12/27 03:55:52;;;;;;;7.35;3.13;;;;;;;2.76;100.00;102268.44;6248543;22;20836;-75
2022/12/27 03:58:19;;;;;;;13.40;2.50;;;;;;;2.78;100.00;102271.50;6249968;22;20387;-75
2022/12/27 04:00:45;;;;;;;11.90;2.75;;;;;;;2.84;100.00;102279.84;6250000;22;20023;-75
2022/12/27 04:03:12;;;;;;;5.88;3.13;;;;;;;2.86;100.00;102273.13;6248481;22;20016;-75
2022/12/27 04:05:38;;;;;;;10.80;3.05;;;;;;;2.87;100.00;102279.16;6250188;22;20368;-75
2022/12/27 04:35:35;;;;;;;9.88;2.50;;;;;;;2.74;100.00;102294.34;6249584;22;20016;-74
2022/12/27 04:38:01;;;;;;;13.43;2.55;;;;;;;2.73;100.00;102298.06;6249270;22;20465;-74
2022/12/27 04:57:04;;;;;;;8.80;3.10;;;;;;;2.51;100.00;102290.88;6248778;22;20013;-77
2022/12/27 05:02:18;;;;;;;6.55;2.40;;;;;;;2.48;100.00;102297.59;6248905;22;20019;-76
2022/12/27 05:04:46;;;;;;;3.40;2.40;;;;;;;2.49;100.00;102298.34;6249517;22;20052;-76
2022/12/27 05:15:31;;;;;;;6.22;2.35;;;;;;;2.55;100.00;102300.34;6248751;22;20017;-75
2022/12/27 05:17:58;;;;;;;7.45;2.92;;;;;;;2.57;100.00;102307.91;6248684;22;20016;-75
2022/12/27 05:20:25;;;;;;;8.00;2.50;;;;;;;2.56;100.00;102315.03;6249501;22;20013;-75
2022/12/27 05:25:41;;;;;;;5.72;2.55;;;;;;;2.52;100.00;102316.81;6249347;22;20482;-74
2022/12/27 05:28:09;;;;;;;7.90;2.53;;;;;;;2.52;100.00;102316.06;6248664;22;20017;-75
2022/12/27 05:30:38;;;;;;;8.63;2.72;;;;;;;2.50;100.00;102315.63;6248857;22;20013;-74
2022/12/27 05:33:05;;;;;;;13.70;2.40;;;;;;;2.48;100.00;102315.97;6248620;22;20048;-74
2022/12/27 05:35:33;;;;;;;7.40;2.70;;;;;;;2.46;100.00;102327.94;6249022;22;20078;-74
2022/12/27 05:37:59;;;;;;;8.68;2.17;;;;;;;2.46;100.00;102335.84;6248179;22;20052;-75
2022/12/27 05:40:26;;;;;;;9.85;2.90;;;;;;;2.48;100.00;102339.63;6249039;22;20056;-74
2022/12/27 05:42:53;;;;;;;12.02;2.28;;;;;;;2.48;100.00;102331.75;6248354;22;20017;-75
2022/12/27 05:45:20;;;;;;;8.77;2.42;;;;;;;2.46;100.00;102336.59;6248591;22;20017;-75
2022/12/27 05:47:46;;;;;;;13.90;3.00;;;;;;;2.46;100.00;102343.72;6249358;22;20435;-74
2022/12/27 05:50:13;;;;;;;11.68;2.60;;;;;;;2.46;100.00;102349.75;6248452;22;20024;-74
2022/12/27 05:52:39;;;;;;;6.35;2.35;;;;;;;2.49;100.00;102346.41;6247662;22;20063;-75
2022/12/27 05:55:07;;;;;;;11.48;2.55;;;;;;;2.49;100.00;102348.28;6248579;22;20017;-75
2022/12/27 05:57:34;;;;;;;8.82;2.85;;;;;;;2.51;100.00;102349.47;6248869;22;20067;-75
2022/12/27 06:00:03;;;;;;;9.10;2.78;;;;;;;2.51;100.00;102344.22;6247538;22;20024;-75
2022/12/27 06:02:38;;;;;;;8.30;2.53;;;;;;;2.53;100.00;102343.88;6249272;22;20032;-76
2022/12/27 06:05:05;;;;;;;6.20;2.10;;;;;;;2.53;100.00;102343.88;6248466;22;20059;-76
2022/12/27 06:07:31;;;;;;;12.40;2.88;;;;;;;2.51;100.00;102351.34;6248851;22;20021;-76
2022/12/27 06:09:58;;;;;;;12.27;2.83;;;;;;;2.49;100.00;102354.31;6248282;22;20439;-77
2022/12/27 06:12:24;;;;;;;10.30;2.97;;;;;;;2.49;100.00;102356.19;6249136;22;20017;-76
2022/12/27 06:14:51;;;;;;;13.13;3.75;;;;;;;2.48;100.00;102360.66;6247987;22;20028;-74
2022/12/27 06:17:17;;;;;;;14.45;4.28;;;;;;;2.48;100.00;102367.78;6248964;22;20017;-74
2022/12/27 06:19:44;;;;;;;15.07;3.88;;;;;;;2.45;100.00;102360.59;6250242;22;20932;-75
2022/12/27 06:22:10;;;;;;;11.65;3.65;;;;;;;2.44;100.00;102365.09;6249431;22;20013;-73
2022/12/27 06:24:37;;;;;;;18.63;3.42;;;;;;;2.43;100.00;102371.44;6250439;22;20442;-74
2022/12/27 06:27:03;;;;;;;6.85;3.40;;;;;;;2.41;100.00;102365.00;6249726;22;20016;-74
2022/12/27 06:29:30;;;;;;;10.75;3.58;;;;;;;2.40;100.00;102366.88;6249634;22;20020;-74
2022/12/27 06:31:56;;;;;;;15.80;3.78;;;;;;;2.40;100.00;102366.88;6249506;22;20013;-74
2022/12/27 06:34:23;;;;;;;5.18;2.88;;;;;;;2.41;100.00;102365.00;6223298;22;20029;-74
2022/12/27 06:36:50;;;;;;;6.00;3.20;;;;;;;2.42;100.00;102374.44;6249914;22;20013;-74
2022/12/27 06:39:17;;;;;;;17.80;3.53;;;;;;;2.39;100.00;102375.91;6249973;22;20017;-74
2022/12/27 06:41:44;;;;;;;8.07;2.78;;;;;;;2.40;100.00;102381.91;6250458;22;20012;-74
2022/12/27 06:44:10;;;;;;;8.63;3.05;;;;;;;2.38;100.00;102387.50;6248802;22;20483;-74
2022/12/27 06:46:37;;;;;;;4.18;2.50;;;;;;;2.36;100.00;102388.97;6250172;22;20021;-74
2022/12/27 06:49:04;;;;;;;9.68;2.80;;;;;;;2.36;100.00;102391.59;6249865;22;20431;-74
2022/12/27 06:51:32;;;;;;;4.70;2.35;;;;;;;2.35;100.00;102388.19;6250545;22;20453;-75
2022/12/27 06:53:58;;;;;;;5.55;3.10;;;;;;;2.33;100.00;102388.53;6247972;22;20063;-74
2022/12/27 06:56:24;;;;;;;7.40;2.80;;;;;;;2.34;100.00;102389.31;6250406;22;20426;-74
2022/12/27 06:58:51;;;;;;;11.77;3.35;;;;;;;2.32;100.00;102394.91;6249241;22;20020;-74
2022/12/27 07:01:23;;;;;;;4.57;3.10;;;;;;;2.32;100.00;102389.66;6250064;22;20023;-74
2022/12/27 07:03:56;;;;;;;5.55;3.33;;;;;;;2.34;100.00;102391.94;6249564;22;20032;-75
2022/12/27 07:06:25;;;;;;;8.25;3.33;;;;;;;2.32;100.00;102396.75;6248680;22;20017;-74
2022/12/27 07:08:52;;;;;;;10.85;3.50;;;;;;;2.29;100.00;102402.72;6249707;22;20509;-74
2022/12/27 07:11:19;;;;;;;7.18;3.47;;;;;;;2.26;100.00;102398.13;6249178;22;20048;-74
2022/12/27 07:13:49;;;;;;;13.02;3.90;;;;;;;2.24;100.00;102400.34;6250156;22;20023;-75
2022/12/27 07:16:21;;;;;;;9.13;3.13;;;;;;;2.22;100.00;102405.94;6249825;22;20075;-75
2022/12/27 07:18:48;;;;;;;9.57;3.85;;;;;;;2.22;100.00;102408.56;6250548;22;20017;-75
2022/12/27 07:21:19;;;;;;;8.98;3.63;;;;;;;2.20;100.00;102408.13;6249720;22;20012;-75
2022/12/27 07:23:45;;;;;;;9.27;3.20;;;;;;;2.21;100.00;102414.16;6250195;22;20469;-75
2022/12/27 07:26:18;;;;;;;9.68;3.38;;;;;;;2.20;100.00;102407.38;6248691;22;20512;-75
2022/12/27 07:28:45;;;;;;;5.53;3.10;;;;;;;2.21;100.00;102407.03;6223221;22;20020;-74
2022/12/27 07:31:23;;;;;;;13.32;3.95;;;;;;;2.23;100.00;102415.34;6248877;22;21071;-75
2022/12/27 07:33:50;;;;;;;6.15;2.90;;;;;;;2.24;100.00;102421.34;6249796;22;20454;-75
2022/12/27 07:36:20;;;;;;;9.85;3.35;;;;;;;2.23;100.00;102411.94;6249725;22;20008;-75
2022/12/27 07:38:46;;;;;;;5.30;2.88;;;;;;;2.23;100.00;102415.34;6250383;22;20020;-75
2022/12/27 07:41:14;;;;;;;13.07;3.47;;;;;;;2.22;100.00;102420.94;6248684;22;20023;-75
2022/12/27 07:43:43;;;;;;;7.35;2.92;;;;;;;2.22;100.00;102426.19;6250032;22;20052;-75
2022/12/27 07:46:12;;;;;;;6.57;3.42;;;;;;;2.20;100.00;102428.41;6249565;22;20421;-74
2022/12/27 07:48:39;;;;;;;12.88;4.50;;;;;;;2.18;100.00;102426.09;6250272;22;20071;-74
2022/12/27 07:51:06;;;;;;;5.35;3.65;;;;;;;2.18;100.00;102430.59;6249896;22;20083;-74
2022/12/27 07:53:33;;;;;;;12.02;3.55;;;;;;;2.18;100.00;102441.88;6250147;22;20397;-75
2022/12/27 07:56:07;;;;;;;9.43;3.42;;;;;;;2.18;100.00;102449.00;6249450;22;20016;-74
2022/12/27 07:58:36;;;;;;;4.75;3.03;;;;;;;2.20;100.00;102452.81;6250616;22;20012;-74
2022/12/27 08:01:03;;;;;;;9.70;3.50;;;;;;;2.21;100.00;102451.69;6250510;22;20037;-74
2022/12/27 08:03:30;;;;;;;11.07;3.78;;;;;;;2.22;100.00;102449.84;6250575;22;20039;-74
2022/12/27 08:05:56;;;;;;;10.95;3.58;;;;;;;2.25;100.00;102457.03;6248803;22;20016;-75
2022/12/27 08:08:30;;;;;;;13.90;3.95;;;;;;;2.27;100.00;102465.34;6250658;22;20366;-72
2022/12/27 08:10:57;;;;;;;9.00;3.58;;;;;;;2.27;100.00;102466.13;6250115;22;20067;-77
2022/12/27 08:13:30;;;;;;;6.20;3.25;;;;;;;2.30;100.00;102473.31;6250845;22;20016;-76
2022/12/27 08:15:57;;;;;;;9.80;3.38;;;;;;;2.31;100.00;102468.81;6250225;22;20028;-78
2022/12/27 08:18:24;;;;;;;6.25;3.13;;;;;;;2.31;100.00;102466.19;6223690;22;20017;-76
2022/12/27 08:20:50;;;;;;;10.35;3.15;;;;;;;2.31;100.00;102469.59;6250359;22;20403;-76
2022/12/27 08:23:17;;;;;;;9.95;4.53;;;;;;;2.32;100.00;102465.88;6250103;22;20013;-77
2022/12/27 08:25:44;;;;;;;10.02;3.83;;;;;;;2.33;100.00;102467.38;6249961;22;20016;-79
2022/12/27 08:28:16;;;;;;;5.30;3.50;;;;;;;2.36;100.00;102470.44;6249029;22;20071;-79
2022/12/27 08:30:44;;;;;;;9.63;3.75;;;;;;;2.40;100.00;102469.38;6250683;22;20167;-79
2022/12/27 08:33:11;;;;;;;15.55;3.75;;;;;;;2.43;100.00;102473.22;6249930;22;20021;-76
2022/12/27 08:35:42;;;;;;;9.30;3.50;;;;;;;2.43;100.00;102475.84;6250560;22;20016;-80
2022/12/27 08:38:19;;;;;;;7.00;3.70;;;;;;;2.46;100.00;102469.91;6250054;22;20459;-78
2022/12/27 08:40:46;;;;;;;6.32;3.22;;;;;;;2.47;100.00;102469.56;6249911;22;20016;-79
2022/12/27 08:43:13;;;;;;;8.23;3.65;;;;;;;2.51;100.00;102467.00;6250170;22;20741;-79
2022/12/27 08:45:40;;;;;;;11.00;3.70;;;;;;;2.53;100.00;102470.81;6250433;22;20510;-79
2022/12/27 08:48:07;;;;;;;12.65;4.63;;;;;;;2.55;100.00;102468.63;6250299;22;20021;-79
2022/12/27 08:50:34;;;;;;;12.15;4.13;;;;;;;2.57;100.00;102468.28;6250400;22;20445;-79
2022/12/27 08:53:02;;;;;;;9.15;4.72;;;;;;;2.58;100.00;102464.53;6248942;22;20481;-79
2022/12/27 08:55:30;;;;;;;9.15;4.38;;;;;;;2.62;100.00;102465.38;6223000;22;20021;-80
2022/12/27 08:58:01;;;;;;;11.10;3.72;;;;;;;2.64;100.00;102463.19;6250110;22;20019;-79
2022/12/27 09:00:28;;;;;;;;;;;;;;;2.70;100.00;102467.06;6251062;22;20013;-78
2022/12/27 09:02:55;;;;;;;15.70;3.92;;;;;;;2.74;100.00;102465.28;6250188;22;19924;-79
2022/12/27 09:05:23;;;;;;;11.20;4.15;;;;;;;2.77;100.00;102455.94;6223178;22;20087;-79
2022/12/27 09:07:50;;;;;;;14.15;4.18;;;;;;;2.79;100.00;102461.63;6249501;22;20016;-81
2022/12/27 09:10:17;;;;;;;8.77;4.60;;;;;;;2.80;100.00;102468.41;6250319;22;20475;-80
2022/12/27 09:12:47;;;;;;;11.90;4.22;;;;;;;2.83;100.00;102473.72;6250234;22;20017;-80
2022/12/27 09:15:13;;;;;;;24.45;5.05;;;;;;;2.87;100.00;102479.81;6222840;22;20044;-78
2022/12/27 09:17:40;;;;;;;12.77;5.35;;;;;;;2.91;100.00;102482.53;6248441;22;20040;-77
2022/12/27 09:20:08;;;;;;;12.27;5.28;;;;;;;2.93;100.00;102481.09;6249899;22;20465;-79
2022/12/27 09:22:35;;;;;;;12.00;4.40;;;;;;;2.96;100.00;102495.41;6249948;22;20083;-81
2022/12/27 09:25:03;;;;;;;14.32;5.05;;;;;;;2.99;100.00;102498.13;6250741;22;20043;-79
2022/12/27 09:27:33;;;;;;;10.82;4.28;;;;;;;3.01;100.00;102484.63;6223555;22;20078;-78
2022/12/27 09:30:01;;;;;;;8.77;4.90;;;;;;;3.05;100.00;102482.06;6224556;22;20472;-78
2022/12/27 09:32:28;;;;;;;8.27;4.80;;;;;;;3.06;100.00;102480.97;6250987;22;20020;-78
2022/12/27 09:34:55;;;;;;;10.85;4.32;;;;;;;3.10;100.00;102487.81;6250939;22;20091;-81
2022/12/27 09:37:23;;;;;;;7.25;4.28;;;;;;;3.14;100.00;102490.53;6253462;22;20390;-88
2022/12/27 09:39:50;;;;;;;15.80;5.15;;;;;;;3.16;100.00;102491.72;6223534;22;20416;-85
2022/12/27 09:42:29;;;;;;;13.48;5.20;;;;;;;3.19;100.00;102491.03;6252908;22;20102;-86
2022/12/27 09:45:41;;;;;;;10.80;4.78;;;;;;;3.23;100.00;102498.97;6249132;22;20021;-78
2022/12/27 09:48:15;;;;;;;10.38;4.93;;;;;;;3.24;100.00;102493.34;6249687;22;20016;-77
2022/12/27 09:50:51;;;;;;;25.65;5.15;;;;;;;3.28;100.00;102496.06;6250076;22;20051;-78
2022/12/27 09:53:32;;;;;;;9.95;4.82;;;;;;;3.32;100.00;102489.75;6250268;22;20017;-80
2022/12/27 09:55:59;;;;;;;9.70;5.18;;;;;;;3.34;100.00;102499.94;6223656;22;20043;-81
2022/12/27 09:58:49;;;;;;;18.33;6.35;;;;;;;3.39;100.00;102498.91;6224113;22;20021;-81
2022/12/27 10:01:30;;;;;;;12.90;6.00;;;;;;;3.42;100.00;102492.94;6251570;22;20851;-80
2022/12/27 10:03:57;;;;;;;12.50;6.03;;;;;;;3.46;100.00;102491.91;6250739;22;20128;-79
2022/12/27 10:06:49;;;;;;;10.55;6.30;;;;;;;3.50;100.00;102498.00;6249816;22;20017;-78
2022/12/27 10:09:24;;;;;;;15.77;6.57;;;;;;;3.53;100.00;102497.31;6198894;22;20418;-80
2022/12/27 10:12:10;;;;;;;15.10;6.43;;;;;;;3.52;100.00;102500.28;6250720;22;20501;-81
2022/12/27 10:15:20;;;;;;;12.23;7.22;;;;;;;3.54;100.00;102498.84;6251323;22;20023;-75
2022/12/27 10:18:11;;;;;;;13.52;6.10;;;;;;;3.58;100.00;102499.66;6216294;22;20020;-77
2022/12/27 10:20:52;;;;;;;10.98;6.38;;;;;;;3.63;100.00;102509.91;6250749;22;20016;-77
2022/12/27 10:23:26;;;;;;;15.25;6.68;;;;;;;3.64;100.00;102511.41;6251456;22;20071;-77
2022/12/27 10:25:59;;;;;;;18.10;5.55;;;;;;;3.65;100.00;102512.94;6249863;22;20027;-77
2022/12/27 10:28:36;;;;;;;13.68;6.13;;;;;;;3.73;100.00;102518.34;6251047;22;20012;-77
2022/12/27 10:31:03;;;;;;;14.48;6.82;;;;;;;3.80;100.00;102515.84;6251016;22;20020;-77
2022/12/27 10:33:34;;;;;;;16.42;7.88;;;;;;;3.85;100.00;102518.19;6249694;22;20017;-76
2022/12/27 10:36:13;;;;;;;22.30;8.87;;;;;;;3.93;100.00;102517.22;6250041;22;20466;-77
2022/12/27 10:38:39;;;;;;;15.55;7.57;;;;;;;3.96;100.00;102509.38;6250522;22;20020;-77
2022/12/27 10:41:27;;;;;;;12.98;6.97;;;;;;;4.02;100.00;102509.81;6223096;22;20039;-74
2022/12/27 10:43:54;;;;;;;11.77;7.30;;;;;;;4.02;100.00;102513.22;6248766;22;20461;-76
2022/12/27 10:46:24;;;;;;;10.57;6.93;;;;;;;4.00;100.00;102506.78;6250139;22;20028;-76
2022/12/27 10:49:17;;;;;;;16.55;7.22;;;;;;;3.99;100.00;102506.03;6249447;22;20120;-75
2022/12/27 10:51:48;;;;;;;16.30;6.75;;;;;;;4.05;100.00;102511.75;6250425;22;20071;-74
2022/12/27 10:54:28;;;;;;;9.90;5.80;;;;;;;4.08;100.00;102508.41;6250536;22;20012;-75
2022/12/27 10:56:56;;;;;;;10.32;6.25;;;;;;;4.15;100.00;102513.06;6251990;22;20020;-77
2022/12/27 10:59:27;;;;;;;11.10;5.82;;;;;;;4.20;100.00;102513.53;6222981;22;20016;-77
2022/12/27 11:02:02;;;;;;;12.88;5.28;;;;;;;4.25;100.00;102517.75;6249446;22;20021;-77
2022/12/27 11:04:30;;;;;;;8.85;5.03;;;;;;;4.28;100.00;102520.44;6222131;22;20017;-77
2022/12/27 11:07:02;;;;;;;9.20;5.15;;;;;;;4.32;100.00;102513.34;6250524;22;20027;-77
2022/12/27 11:09:42;;;;;;;10.43;5.65;;;;;;;4.38;100.00;102505.91;6250874;22;20075;-77
2022/12/27 11:12:27;;;;;;;8.55;4.90;;;;;;;4.45;100.00;102508.63;6251020;22;20461;-78
2022/12/27 11:15:01;;;;;;;6.97;4.43;;;;;;;4.48;100.00;102500.00;6250587;22;20070;-77
2022/12/27 11:17:33;;;;;;;6.20;4.32;;;;;;;4.51;100.00;102488.00;6251707;22;20016;-79
2022/12/27 11:20:17;;;;;;;8.38;4.72;;;;;;;4.57;100.00;102494.50;6250115;22;20052;-78
2022/12/27 11:22:49;;;;;;;9.43;4.78;;;;;;;4.65;100.00;102493.47;6250793;22;20059;-80
2022/12/27 11:25:16;;;;;;;;;;;;;;;4.75;100.00;102478.91;6251539;22;20027;-78
2022/12/27 11:27:49;;;;;;;11.93;5.22;;;;;;;4.83;100.00;102475.22;6224178;22;20365;-78
2022/12/27 11:30:47;;;;;;;5.95;4.70;;;;;;;4.90;100.00;102477.97;6250771;22;20154;-78
2022/12/27 11:33:25;;;;;;;9.13;5.40;;;;;;;5.00;100.00;102477.34;6249502;22;20012;-78
2022/12/27 11:35:56;;;;;;;10.30;4.85;;;;;;;5.10;100.00;102484.66;6223875;22;20080;-78
2022/12/27 11:38:26;;;;;;;12.23;5.00;;;;;;;5.16;100.00;102485.09;6250391;22;20838;-78
2022/12/27 11:41:08;;;;;;;10.95;5.18;;;;;;;5.20;100.00;102478.72;6248654;22;20059;-77
2022/12/27 11:43:44;;;;;;;10.35;5.20;;;;;;;5.24;100.00;102479.50;6250749;22;20013;-79
2022/12/27 11:46:34;;;;;;;14.38;5.38;;;;;;;5.33;100.00;102476.59;6250425;22;20086;-76
2022/12/27 11:49:05;;;;;;;9.27;5.07;;;;;;;5.39;100.00;102471.75;6248395;22;20016;-76
2022/12/27 11:51:59;;;;;;;11.57;5.28;;;;;;;5.40;100.00;102473.28;6250812;22;20069;-76
2022/12/27 11:54:51;;;;;;;9.85;6.72;;;;;;;5.42;100.00;102471.78;6250863;22;20024;-76
2022/12/27 11:57:28;;;;;;;13.20;6.28;;;;;;;5.42;100.00;102471.78;6250629;22;20048;-75
2022/12/27 12:00:23;;;;;;;17.30;6.05;;;;;;;5.49;100.00;102471.88;6250397;22;20017;-82
2022/12/27 12:02:49;;;;;;;11.55;6.18;;;;;;;5.52;100.00;102478.31;6250129;22;20402;-83
2022/12/27 12:05:40;;;;;;;13.07;6.15;;;;;;;5.57;100.00;102468.19;6249864;22;20020;-82
2022/12/27 12:08:42;;;;;;;11.43;6.63;;;;;;;5.63;100.00;102469.34;6249163;22;20336;-83
2022/12/27 12:11:17;;;;;;;14.30;5.30;;;;;;;5.63;100.00;102461.44;6096501;23;20078;-84
2022/12/27 12:13:49;;;;;;;14.55;6.32;;;;;;;5.61;100.00;102455.75;6097147;23;20023;-83
2022/12/27 12:16:39;;;;;;;14.35;5.65;;;;;;;5.64;100.00;102455.03;6095564;23;20075;-83
2022/12/27 12:19:24;;;;;;;13.05;5.53;;;;;;;5.66;100.00;102452.78;6072541;23;20019;-81
2022/12/27 12:22:29;;;;;;;14.02;6.15;;;;;;;5.69;100.00;102443.38;6097947;23;20440;-84
2022/12/27 12:24:56;;;;;;;8.82;5.13;;;;;;;5.68;100.00;102439.97;6098013;23;20023;-81
2022/12/27 12:27:37;;;;;;;8.45;5.20;;;;;;;5.73;100.00;102435.47;6098014;23;20022;-82
2022/12/27 12:30:27;;;;;;;11.20;5.43;;;;;;;5.76;100.00;102435.50;6097991;23;20025;-83
2022/12/27 12:33:12;;;;;;;12.77;5.53;;;;;;;5.84;100.00;102436.31;6097744;23;20078;-81
2022/12/27 12:35:52;;;;;;;9.32;5.30;;;;;;;5.89;100.00;102428.84;6098326;23;20018;-81
2022/12/27 12:38:41;;;;;;;11.32;4.97;;;;;;;5.94;100.00;102430.41;6098746;23;20472;-83
2022/12/27 12:41:33;;;;;;;6.97;4.70;;;;;;;6.01;100.00;102412.69;6097710;23;20027;-80
2022/12/27 12:44:17;;;;;;;8.50;4.73;;;;;;;6.07;100.00;102415.00;6098004;23;20046;-80
2022/12/27 12:47:03;;;;;;;13.25;5.40;;;;;;;6.14;100.00;102405.22;6073099;23;20019;-80
2022/12/27 12:49:50;;;;;;;10.55;4.75;;;;;;;6.15;100.00;102411.28;6250643;22;20016;-80
2022/12/27 12:52:42;;;;;;;8.77;5.03;;;;;;;6.20;100.00;102403.00;6250182;22;20087;-80
2022/12/27 12:55:45;;;;;;;7.85;4.80;;;;;;;6.19;100.00;102396.94;6250024;22;20017;-80
2022/12/27 12:58:11;;;;;;;8.40;5.40;;;;;;;6.19;100.00;102394.31;6250146;22;20094;-79
2022/12/27 13:01:21;;;;;;;7.97;6.05;;;;;;;6.20;100.00;102385.25;6249636;22;20021;-79
2022/12/27 13:04:09;;;;;;;12.65;5.32;;;;;;;6.22;99.95;102375.06;6206951;22;20017;-80
2022/12/27 13:07:04;;;;;;;7.78;5.40;;;;;;;6.22;99.77;102377.69;6250162;22;20095;-80
2022/12/27 13:09:54;;;;;;;13.30;5.60;;;;;;;6.21;99.64;102368.25;6250304;22;20016;-79
2022/12/27 13:12:34;;;;;;;10.07;6.40;;;;;;;6.24;99.81;102359.59;6249873;22;20434;-80
2022/12/27 13:15:19;;;;;;;11.63;5.15;;;;;;;6.27;99.42;102353.56;6249535;22;20013;-80
2022/12/27 13:18:03;;;;;;;11.57;5.65;;;;;;;6.27;99.57;102347.50;6250433;22;20086;-80
2022/12/27 13:20:52;;;;;;;7.85;4.78;;;;;;;6.26;99.41;102349.41;6250265;22;20024;-80
2022/12/27 13:23:40;;;;;;;10.50;4.78;;;;;;;6.24;99.37;102343.72;6249974;22;20013;-80
2022/12/27 13:26:21;;;;;;;8.23;4.50;;;;;;;6.23;99.29;102344.84;6249526;22;20051;-80